»·PEaware :: N7732J KAJO-KVCV

N7732J :: KAJO-KVCV

FLIGHT INFORMATION

Flight Status: Arrived
Operator: Privately registered:
United States
More flights under this callsign
Pilot: Scott G. (88)
Aircraft: BEECH AIRCRAFT BARON
(BE58)
More flights by this aircraft type
Origin: KAJO Corona Mun
United States
Destination: KVCV Socal Logistics
United States
More flights between these airports :: More routes between these airports
Route: +PDZ V442 APLES
File this flight plan on PilotEdge
Remarks: I-11 attempt
Altitude:
(Current/Filed)
9,000ft
Speed:
(Current/Filed)
160kts
Departed: 07-Feb-19 09:30 AM
Arrived: 07-Feb-19 10:14 AM
Distance/Time
Traveled:
43nm/0:44
Distance/Time
To Go:
Arrived

Flight Plot

Page will automatically refresh every two minutes.


Map Options




Map Legend


Flown Route
Filed Route
Departure Airport
Arrival Airport
Navaid (VOR, NDB)
Fix

Horizontal Profiles

Position Reports

Time Latitude Longitude Heading Altitude Ground
Speed
07-Feb-19 09:00 33.896948 -117.600556 180 537ft 0kts
07-Feb-19 09:01 33.896948 -117.600556 179 537ft 0kts
07-Feb-19 09:02 33.896865 -117.600456 71 537ft 3kts
07-Feb-19 09:03 33.897066 -117.599996 49 537ft 4kts
07-Feb-19 09:04 33.897279 -117.597239 322 537ft 0kts
07-Feb-19 09:05 33.897279 -117.597239 322 537ft 0kts
07-Feb-19 09:06 33.897279 -117.597239 322 537ft 0kts
07-Feb-19 09:07 33.897279 -117.597239 322 537ft 0kts
07-Feb-19 09:08 33.897279 -117.597239 322 537ft 0kts
07-Feb-19 09:10 33.897279 -117.597239 322 537ft 0kts
07-Feb-19 09:11 33.897279 -117.597239 322 537ft 0kts
07-Feb-19 09:12 33.897279 -117.597239 322 537ft 0kts
07-Feb-19 09:13 33.897279 -117.597239 322 537ft 0kts
07-Feb-19 09:14 33.897279 -117.597239 322 537ft 0kts
07-Feb-19 09:15 33.897279 -117.597239 322 537ft 0kts
07-Feb-19 09:16 33.897279 -117.597239 322 537ft 0kts
07-Feb-19 09:17 33.897279 -117.597239 322 537ft 0kts
07-Feb-19 09:18 33.897279 -117.597239 322 537ft 0kts
07-Feb-19 09:19 33.897279 -117.597239 322 537ft 0kts
07-Feb-19 09:20 33.897279 -117.597239 322 537ft 0kts
07-Feb-19 09:21 33.897279 -117.597239 322 537ft 0kts
07-Feb-19 09:22 33.897279 -117.597239 322 537ft 0kts
07-Feb-19 09:23 33.897279 -117.597239 322 537ft 0kts
07-Feb-19 09:24 33.897279 -117.597239 322 537ft 0kts
07-Feb-19 09:25 33.897279 -117.597239 322 537ft 0kts
07-Feb-19 09:25 33.897279 -117.597239 322 537ft 0kts
07-Feb-19 09:27 33.897279 -117.597239 322 537ft 0kts
07-Feb-19 09:28 33.897279 -117.597239 322 537ft 0kts
07-Feb-19 09:29 33.897737 -117.598034 269 537ft 1kts
07-Feb-19 09:29 33.897606 -117.606659 268 576ft 109kts
07-Feb-19 09:30 33.914134 -117.630891 23 2307ft 122kts
07-Feb-19 09:32 33.922853 -117.585154 95 3935ft 146kts
07-Feb-19 09:33 33.923308 -117.538022 19 4770ft 169kts
07-Feb-19 09:33 33.939304 -117.504441 122 5805ft 143kts
07-Feb-19 09:34 33.917818 -117.530036 247 6912ft 134kts
07-Feb-19 09:35 33.938819 -117.546669 34 8230ft 140kts
07-Feb-19 09:36 33.970553 -117.516067 36 9017ft 164kts
07-Feb-19 09:37 34.000104 -117.470888 73 9001ft 181kts
07-Feb-19 09:38 34.030750 -117.431741 11 9037ft 185kts
07-Feb-19 09:39 34.082504 -117.416189 17 8996ft 195kts
07-Feb-19 09:40 34.133937 -117.396193 18 8995ft 197kts
07-Feb-19 09:41 34.185138 -117.372603 20 8996ft 197kts
07-Feb-19 09:42 34.234889 -117.344664 26 8997ft 197kts
07-Feb-19 09:43 34.284314 -117.315719 26 8997ft 197kts
07-Feb-19 09:44 34.333619 -117.285757 27 8998ft 197kts
07-Feb-19 09:45 34.384389 -117.253637 27 8998ft 201kts
07-Feb-19 09:46 34.437061 -117.220251 27 8692ft 211kts
07-Feb-19 09:47 34.491862 -117.185465 27 8238ft 213kts
07-Feb-19 09:48 34.543645 -117.152533 27 7970ft 201kts
07-Feb-19 09:49 34.596800 -117.143081 359 7339ft 186kts
07-Feb-19 09:50 34.646366 -117.151289 345 6866ft 169kts
07-Feb-19 09:51 34.689549 -117.171843 332 6686ft 169kts
07-Feb-19 09:52 34.730687 -117.206881 318 6680ft 187kts
07-Feb-19 09:53 34.764874 -117.255764 303 6672ft 190kts
07-Feb-19 09:54 34.787932 -117.315131 288 6320ft 199kts
07-Feb-19 09:55 34.791292 -117.377628 240 5288ft 178kts
07-Feb-19 09:56 34.752811 -117.386870 153 4134ft 141kts
07-Feb-19 09:57 34.719140 -117.379552 182 3998ft 124kts
07-Feb-19 09:58 34.683226 -117.382315 184 4015ft 133kts
07-Feb-19 09:59 34.650563 -117.385107 184 3427ft 105kts
07-Feb-19 10:00 34.620004 -117.386648 178 3141ft 135kts
07-Feb-19 10:01 34.587819 -117.403643 271 4332ft 154kts
07-Feb-19 10:02 34.604326 -117.448891 272 5801ft 143kts
07-Feb-19 10:03 34.612260 -117.502404 287 5996ft 177kts
07-Feb-19 10:04 34.624511 -117.561302 284 6005ft 182kts
07-Feb-19 10:05 34.653266 -117.606877 353 6005ft 178kts
07-Feb-19 10:06 34.682751 -117.571310 97 6005ft 165kts
07-Feb-19 10:07 34.662955 -117.522626 123 5741ft 156kts
07-Feb-19 10:08 34.635814 -117.481782 128 5060ft 152kts
07-Feb-19 10:09 34.609523 -117.442001 128 3894ft 149kts
07-Feb-19 10:10 34.609676 -117.412187 350 3885ft 110kts
07-Feb-19 10:11 34.641470 -117.413090 27 3929ft 117kts
07-Feb-19 10:12 34.631604 -117.387345 167 3256ft 106kts
07-Feb-19 10:13 34.610620 -117.386145 111 2888ft 20kts
07-Feb-19 10:14 34.610567 -117.385427 92 2888ft 0kts
07-Feb-19 10:15 34.609162 -117.384154 180 2888ft 20kts
07-Feb-19 10:16 34.601750 -117.384076 181 2888ft 30kts
07-Feb-19 10:17 34.594681 -117.383704 145 2888ft 24kts
07-Feb-19 10:18 34.590172 -117.378197 134 2888ft 15kts
07-Feb-19 10:19 34.587645 -117.375676 314 2888ft 4kts
07-Feb-19 10:20 34.587702 -117.375745 316 2888ft 0kts
07-Feb-19 10:21 34.587702 -117.375745 316 2888ft 0kts
07-Feb-19 10:22 34.587702 -117.375745 316 2888ft 0kts
07-Feb-19 10:23 34.587702 -117.375745 316 2888ft 0kts
07-Feb-19 10:24 34.587702 -117.375745 316 2888ft 0kts

Navigation Log

Ident Type
Flight plan parsing failed, navigation log unavailable